Time;durP1;ratioP1;P1;durP2;ratioP2;P2;SDS_P1;SDS_P2;PMS_P1;PMS_P2;Temp;Humidity;BMP_temperature;BMP_pressure;BME280_temperature;BME280_humidity;BME280_pressure;Samples;Min_cycle;Max_cycle;Signal;HPM_P1;HPM_P2
2021/12/08 00:01:18;;;;;;;8.30;3.38;;;;;;;2.60;89.00;99145.97;10523075;28;20029;-79
2021/12/08 00:06:18;;;;;;;5.57;3.13;;;;;;;2.65;89.10;99141.03;10514840;28;20081;-80
2021/12/08 00:16:38;;;;;;;4.10;2.80;;;;;;;2.73;88.84;99134.56;10534215;28;20031;-79
2021/12/08 00:21:38;;;;;;;4.70;2.45;;;;;;;2.81;89.02;99128.91;10514716;28;20051;-78
2021/12/08 00:26:39;;;;;;;5.43;4.32;;;;;;;2.85;89.20;99128.25;10537729;28;20066;-79
2021/12/08 00:31:40;;;;;;;5.78;3.17;;;;;;;2.91;89.55;99131.16;10516531;28;20048;-79
2021/12/08 00:36:44;;;;;;;4.33;2.43;;;;;;;2.96;89.64;99121.03;10536172;28;20024;-78
2021/12/08 00:41:44;;;;;;;4.38;2.45;;;;;;;3.09;89.81;99133.75;10518958;28;20092;-78
2021/12/08 00:46:45;;;;;;;4.45;1.58;;;;;;;3.42;89.97;99127.59;10537831;28;20426;-78
2021/12/08 00:51:45;;;;;;;3.50;1.75;;;;;;;3.67;89.29;99127.94;10501302;28;20115;-78
2021/12/08 00:56:46;;;;;;;4.55;1.75;;;;;;;3.93;89.06;99130.84;10535262;28;20024;-78
2021/12/08 01:01:49;;;;;;;2.67;1.23;;;;;;;4.03;88.35;99146.81;10496436;28;20114;-78
2021/12/08 01:06:50;;;;;;;1.88;1.20;;;;;;;4.08;88.06;99138.44;10529656;28;20024;-78
2021/12/08 01:11:50;;;;;;;3.42;1.77;;;;;;;4.19;87.33;99140.63;10519939;28;20108;-78
2021/12/08 01:16:52;;;;;;;4.18;1.88;;;;;;;4.29;87.38;99149.72;10545006;28;20070;-77
2021/12/08 01:21:52;;;;;;;3.20;1.83;;;;;;;4.43;86.16;99137.34;10527684;28;20118;-77
2021/12/08 01:26:55;;;;;;;2.72;1.23;;;;;;;4.58;85.45;99151.00;10525574;28;20028;-78
2021/12/08 01:31:55;;;;;;;2.17;1.08;;;;;;;4.52;85.18;99151.63;10525689;28;20035;-78
2021/12/08 01:36:56;;;;;;;4.10;2.25;;;;;;;4.40;85.85;99167.50;10525956;28;20547;-78
2021/12/08 01:41:56;;;;;;;5.40;1.88;;;;;;;4.51;85.61;99180.03;10542507;28;20051;-78
2021/12/08 01:46:57;;;;;;;2.15;1.23;;;;;;;4.60;85.33;99171.81;10522243;28;20036;-77
2021/12/08 01:51:57;;;;;;;2.50;1.35;;;;;;;4.66;84.90;99187.63;10525469;28;20028;-78
2021/12/08 01:57:00;;;;;;;6.03;1.48;;;;;;;4.62;84.97;99184.00;10524552;28;20588;-77
2021/12/08 02:02:00;;;;;;;3.88;1.63;;;;;;;4.64;85.04;99187.53;10542102;28;20058;-78
2021/12/08 02:07:01;;;;;;;3.45;1.42;;;;;;;4.64;85.32;99192.72;10541909;28;20027;-78
2021/12/08 02:12:01;;;;;;;2.45;1.00;;;;;;;4.68;85.25;99188.59;10524877;28;20028;-78
2021/12/08 02:17:02;;;;;;;3.00;1.35;;;;;;;4.72;84.94;99192.19;10523663;28;20082;-77
2021/12/08 02:22:03;;;;;;;3.17;2.15;;;;;;;4.70;84.56;99200.78;10514935;28;20099;-77
2021/12/08 02:27:03;;;;;;;2.08;0.98;;;;;;;4.63;84.53;99196.13;10532000;28;20480;-77
2021/12/08 02:32:13;;;;;;;5.30;1.80;;;;;;;4.52;85.13;99212.91;10540908;28;20115;-78
2021/12/08 02:46:43;;;;;;;5.10;1.75;;;;;;;4.53;85.41;99217.28;10540791;28;20032;-77
2021/12/08 02:48:12;;;;;;;1.60;0.93;;;;;;;4.58;85.44;99223.53;10510891;28;20036;-77
2021/12/08 02:53:13;;;;;;;3.60;1.50;;;;;;;4.68;84.84;99228.31;10541561;28;20091;-78
2021/12/08 02:58:14;;;;;;;3.53;2.27;;;;;;;4.59;85.49;99237.41;10506262;28;20368;-78
2021/12/08 03:03:14;;;;;;;11.73;2.60;;;;;;;4.53;86.18;99238.00;10522408;28;20040;-78
2021/12/08 03:08:15;;;;;;;2.78;1.17;;;;;;;4.53;85.78;99236.31;10522968;28;20032;-77
2021/12/08 03:13:15;;;;;;;10.45;3.85;;;;;;;4.51;84.81;99250.00;10538570;28;20044;-78
2021/12/08 03:18:16;;;;;;;5.30;2.42;;;;;;;4.33;85.53;99255.22;10505472;28;20464;-78
2021/12/08 03:23:23;;;;;;;5.75;2.78;;;;;;;4.18;85.52;99245.91;10539961;28;20119;-78
2021/12/08 03:28:28;;;;;;;5.60;1.52;;;;;;;4.27;85.68;99255.81;10539098;28;20040;-78
2021/12/08 03:33:29;;;;;;;6.78;1.70;;;;;;;4.24;85.38;99247.91;10521402;28;20032;-78
2021/12/08 03:38:30;;;;;;;6.45;2.78;;;;;;;4.18;85.30;99247.59;10504142;28;20040;-77
2021/12/08 03:43:30;;;;;;;9.23;2.80;;;;;;;4.14;85.11;99246.59;10539009;28;20048;-77
2021/12/08 03:48:46;;;;;;;9.45;1.85;;;;;;;4.19;84.92;99251.97;10520636;28;20472;-77
2021/12/08 03:53:47;;;;;;;8.50;2.15;;;;;;;4.32;84.06;99256.03;10522043;28;20032;-77
2021/12/08 03:58:47;;;;;;;4.47;1.35;;;;;;;4.28;82.97;99267.06;10503710;28;20036;-77
2021/12/08 04:03:50;;;;;;;9.70;1.90;;;;;;;4.33;80.66;99273.34;10519942;28;20035;-77
2021/12/08 04:08:56;;;;;;;6.18;2.40;;;;;;;4.24;81.45;99277.28;10517445;28;20028;-79
2021/12/08 04:14:08;;;;;;;5.45;2.38;;;;;;;4.25;81.25;99275.56;10519794;28;20128;-78
2021/12/08 04:19:08;;;;;;;5.28;2.10;;;;;;;4.27;81.04;99286.88;10505670;28;20039;-77
2021/12/08 04:24:09;;;;;;;9.82;3.25;;;;;;;4.10;81.18;99291.28;10495391;28;20502;-78
2021/12/08 04:29:10;;;;;;;7.85;2.10;;;;;;;3.96;81.23;99291.50;10502411;28;20032;-78
2021/12/08 04:34:18;;;;;;;11.13;2.97;;;;;;;3.74;82.55;99296.44;10519443;28;20073;-78
2021/12/08 04:39:35;;;;;;;8.05;2.63;;;;;;;3.77;82.38;99306.94;10518580;28;20475;-78
2021/12/08 04:44:44;;;;;;;8.23;2.10;;;;;;;3.57;82.55;99321.44;10503555;28;20377;-78
2021/12/08 05:11:00;;;;;;;6.97;2.05;;;;;;;2.78;85.19;99328.56;10529369;28;20059;-78
2021/12/08 05:16:00;;;;;;;14.65;5.70;;;;;;;2.70;85.76;99335.94;10535428;28;20024;-78
2021/12/08 05:21:28;;;;;;;11.15;2.70;;;;;;;2.77;85.62;99321.63;10511033;28;20027;-77
2021/12/08 05:26:34;;;;;;;14.75;3.80;;;;;;;3.10;84.25;99318.19;10490016;28;20116;-76
2021/12/08 05:31:35;;;;;;;10.52;2.28;;;;;;;3.07;84.12;99329.25;10515865;28;20032;-76
2021/12/08 05:36:36;;;;;;;13.27;3.80;;;;;;;3.05;83.42;99328.28;10536463;28;20031;-77
2021/12/08 05:41:38;;;;;;;6.97;2.33;;;;;;;2.81;84.08;99339.06;10535986;28;20047;-76
2021/12/08 05:46:42;;;;;;;13.52;2.38;;;;;;;2.89;84.07;99340.38;10535088;28;20081;-78
2021/12/08 05:51:43;;;;;;;9.20;3.67;;;;;;;2.88;84.00;99333.44;10516880;28;20115;-78
2021/12/08 05:56:46;;;;;;;10.85;3.83;;;;;;;2.82;84.05;99345.16;10535459;28;20488;-78
2021/12/08 06:01:54;;;;;;;11.32;2.80;;;;;;;2.87;84.22;99361.78;10523978;28;20081;-78
2021/12/08 06:06:55;;;;;;;10.30;3.17;;;;;;;2.96;83.63;99357.13;10525099;28;20032;-78
2021/12/08 06:11:56;;;;;;;14.95;3.45;;;;;;;3.08;83.44;99367.22;10487874;28;20119;-77
2021/12/08 06:16:57;;;;;;;11.07;2.85;;;;;;;3.08;83.12;99388.81;10524097;28;20024;-78
2021/12/08 06:21:57;;;;;;;12.43;3.45;;;;;;;3.33;81.75;99395.28;10486726;28;20421;-78
2021/12/08 06:26:58;;;;;;;13.23;5.18;;;;;;;3.23;81.98;99403.34;10507693;28;20032;-78
2021/12/08 06:31:59;;;;;;;10.88;2.63;;;;;;;3.10;82.54;99416.44;10524165;28;20406;-78
2021/12/08 06:37:06;;;;;;;8.60;2.43;;;;;;;2.99;82.48;99396.06;10488887;28;20174;-78
2021/12/08 06:42:13;;;;;;;8.10;3.47;;;;;;;2.98;81.78;99416.63;10506183;28;20047;-78
2021/12/08 06:47:20;;;;;;;11.40;3.60;;;;;;;2.94;82.04;99413.88;10523903;28;20040;-77
2021/12/08 06:52:27;;;;;;;9.50;2.50;;;;;;;2.65;81.95;99396.78;10480117;28;20042;-78
2021/12/08 06:57:39;;;;;;;9.20;2.67;;;;;;;2.67;82.25;99394.28;10524337;28;20034;-78
2021/12/08 07:07:46;;;;;;;11.55;2.25;;;;;;;2.31;83.29;99425.88;10541561;28;20036;-78
2021/12/08 07:12:52;;;;;;;8.80;2.15;;;;;;;2.20;83.30;99444.22;10506346;28;20062;-77
2021/12/08 07:17:59;;;;;;;6.25;2.50;;;;;;;2.17;83.70;99440.56;10505708;28;20024;-77
2021/12/08 07:23:00;;;;;;;8.20;4.32;;;;;;;2.08;84.29;99448.66;10519761;28;20044;-77
2021/12/08 07:28:01;;;;;;;13.10;4.90;;;;;;;2.11;84.92;99460.84;10516350;28;20025;-77
2021/12/08 07:33:02;;;;;;;9.50;3.03;;;;;;;2.23;84.73;99452.94;10521857;28;20020;-77
2021/12/08 07:38:05;;;;;;;10.32;2.67;;;;;;;2.10;84.31;99441.00;10508596;28;20100;-77
2021/12/08 07:43:08;;;;;;;7.47;2.78;;;;;;;2.08;84.25;99460.66;10508390;28;20068;-77
2021/12/08 07:48:11;;;;;;;12.35;4.05;;;;;;;2.25;83.97;99472.00;10488289;28;20415;-77
2021/12/08 07:53:14;;;;;;;7.57;2.17;;;;;;;2.45;83.13;99486.03;10478872;28;20024;-76
2021/12/08 07:58:18;;;;;;;6.32;1.60;;;;;;;2.61;82.64;99485.25;10499456;28;20484;-76
2021/12/08 08:03:23;;;;;;;12.02;3.38;;;;;;;2.83;80.82;99495.09;10484863;28;20046;-77
2021/12/08 08:08:30;;;;;;;10.38;2.72;;;;;;;2.99;79.51;99503.72;10479036;28;20047;-77
2021/12/08 08:13:31;;;;;;;11.60;4.50;;;;;;;2.94;80.29;99495.72;10519692;28;20046;-76
2021/12/08 08:18:34;;;;;;;11.93;2.35;;;;;;;2.95;79.67;99482.00;10513451;28;20521;-78
2021/12/08 08:23:35;;;;;;;6.95;2.72;;;;;;;3.03;79.58;99472.97;10514341;28;20027;-77
2021/12/08 08:28:35;;;;;;;7.97;2.88;;;;;;;3.17;78.94;99491.81;10504764;28;20035;-78
2021/12/08 08:33:37;;;;;;;33.60;12.13;;;;;;;3.28;78.19;99491.50;10516797;28;20789;-78
2021/12/08 08:38:42;;;;;;;7.07;2.40;;;;;;;3.43;77.32;99482.00;10509450;28;20533;-78
2021/12/08 08:43:43;;;;;;;12.40;2.22;;;;;;;3.36;78.21;99490.22;10495092;28;20047;-78
2021/12/08 08:48:49;;;;;;;17.55;3.85;;;;;;;3.56;77.25;99498.19;10514170;28;20464;-78
2021/12/08 08:53:52;;;;;;;8.25;2.63;;;;;;;3.58;75.89;99493.97;10506796;28;20035;-79
2021/12/08 08:58:54;;;;;;;6.15;2.28;;;;;;;3.74;76.85;99512.09;10528424;28;20054;-79
2021/12/08 09:03:59;;;;;;;;;;;;;;;3.87;75.80;99513.66;10518382;28;20535;-80
2021/12/08 09:09:02;;;;;;;18.45;9.68;;;;;;;3.96;75.15;99497.69;10515171;28;19959;-75
2021/12/08 09:14:23;;;;;;;7.88;2.55;;;;;;;4.02;74.08;99502.31;10511166;28;20033;-78
2021/12/08 09:19:27;;;;;;;25.80;6.22;;;;;;;4.18;74.71;99503.97;10495658;28;20021;-78
2021/12/08 09:24:45;;;;;;;9.55;1.92;;;;;;;4.29;74.69;99509.72;10477479;28;20050;-78
2021/12/08 09:29:55;;;;;;;8.60;3.25;;;;;;;4.24;74.08;99514.66;10487080;28;20037;-78
2021/12/08 09:34:58;;;;;;;8.18;2.03;;;;;;;4.33;72.35;99504.75;10497674;28;20473;-79
2021/12/08 09:40:09;;;;;;;8.65;2.70;;;;;;;4.20;74.10;99497.19;10485132;28;20052;-79
2021/12/08 09:45:37;;;;;;;12.73;1.85;;;;;;;4.69;72.15;99485.81;10511370;28;20039;-79
2021/12/08 09:50:38;;;;;;;8.23;2.83;;;;;;;5.33;70.61;99468.03;10524675;28;20036;-79
2021/12/08 09:55:39;;;;;;;7.55;2.28;;;;;;;5.92;68.34;99461.19;10484322;28;20450;-78
2021/12/08 10:00:42;;;;;;;6.13;3.17;;;;;;;6.50;65.78;99446.31;10518413;28;20016;-80
2021/12/08 10:05:43;;;;;;;6.13;1.70;;;;;;;6.67;66.47;99454.81;10529308;28;20028;-79
2021/12/08 10:10:47;;;;;;;5.78;2.15;;;;;;;6.60;64.84;99443.28;10475098;28;20036;-79
2021/12/08 10:15:48;;;;;;;9.52;1.70;;;;;;;6.49;66.06;99449.75;10508678;28;20036;-81
2021/12/08 10:20:50;;;;;;;7.40;1.75;;;;;;;6.27;66.27;99474.84;10524263;28;20032;-81
2021/12/08 10:25:57;;;;;;;9.52;3.50;;;;;;;6.56;66.48;99476.88;10482060;28;20395;-79
2021/12/08 10:31:06;;;;;;;8.85;2.95;;;;;;;6.85;65.47;99479.78;10500884;28;20119;-80
2021/12/08 10:36:22;;;;;;;7.45;2.78;;;;;;;7.07;63.23;99486.72;10520016;28;20115;-81
2021/12/08 10:41:22;;;;;;;8.52;2.13;;;;;;;6.72;66.87;99492.28;10506762;28;20050;-81
2021/12/08 10:46:23;;;;;;;8.23;2.95;;;;;;;6.17;67.48;99509.03;10480525;28;20486;-80
2021/12/08 10:56:43;;;;;;;5.00;2.08;;;;;;;7.63;61.51;99517.50;10513246;28;20045;-79
2021/12/08 11:01:44;;;;;;;7.38;1.30;;;;;;;6.41;63.32;99519.59;10536758;28;20032;-79
2021/12/08 11:06:45;;;;;;;5.43;1.35;;;;;;;5.97;66.40;99518.50;10519826;28;20100;-80
2021/12/08 11:11:46;;;;;;;6.13;2.13;;;;;;;5.78;68.13;99517.69;10541068;28;20157;-81
2021/12/08 11:16:46;;;;;;;4.28;1.30;;;;;;;6.28;67.56;99525.97;10506094;28;20110;-83
2021/12/08 11:21:49;;;;;;;9.20;3.00;;;;;;;6.74;64.12;99520.97;10523340;28;20368;-83
2021/12/08 11:26:51;;;;;;;4.15;1.52;;;;;;;7.32;62.71;99530.22;10506376;28;20024;-82
2021/12/08 11:31:53;;;;;;;3.08;1.38;;;;;;;7.44;61.36;99514.19;10490214;28;20055;-83
2021/12/08 11:37:08;;;;;;;7.20;2.58;;;;;;;7.45;61.78;99528.09;10522388;28;20024;-82
2021/12/08 11:42:16;;;;;;;6.80;1.95;;;;;;;6.65;63.56;99538.78;10540738;28;20036;-82
2021/12/08 11:47:32;;;;;;;6.25;2.22;;;;;;;6.00;65.91;99549.81;10506471;28;20085;-81
2021/12/08 11:52:33;;;;;;;6.35;1.98;;;;;;;5.72;68.09;99558.94;10506531;28;20027;-78
2021/12/08 11:57:39;;;;;;;4.55;1.90;;;;;;;5.42;67.82;99567.06;10540074;28;20044;-81
2021/12/08 12:02:43;;;;;;;4.65;2.33;;;;;;;5.31;70.03;99569.16;10505338;28;20016;-83
2021/12/08 12:07:44;;;;;;;5.47;1.58;;;;;;;5.21;71.32;99577.31;10521057;28;20031;-82
2021/12/08 12:12:44;;;;;;;10.45;2.13;;;;;;;5.12;70.22;99583.84;10487760;28;20120;-82
2021/12/08 12:17:47;;;;;;;6.65;1.75;;;;;;;5.16;69.45;99578.81;10504533;28;20038;-81
2021/12/08 12:23:05;;;;;;;7.43;3.15;;;;;;;5.04;69.62;99574.81;10504518;28;20521;-81
2021/12/08 12:28:17;;;;;;;9.63;3.17;;;;;;;5.15;69.13;99588.28;10520571;28;20075;-79
2021/12/08 12:33:19;;;;;;;4.30;1.88;;;;;;;5.15;68.94;99588.28;10503930;28;20028;-79
2021/12/08 12:38:36;;;;;;;10.18;2.63;;;;;;;5.18;68.03;99598.81;10521584;28;20027;-80
2021/12/08 12:43:39;;;;;;;7.45;2.08;;;;;;;5.22;67.86;99610.25;10503583;28;20036;-80
2021/12/08 12:48:40;;;;;;;4.82;1.90;;;;;;;5.21;70.16;99618.84;10520824;28;20059;-80
2021/12/08 12:53:45;;;;;;;8.10;2.38;;;;;;;5.12;69.04;99627.03;10520297;28;20363;-80
2021/12/08 12:58:50;;;;;;;6.93;1.90;;;;;;;5.16;69.20;99622.91;10502674;28;20082;-80
2021/12/08 13:04:22;;;;;;;8.10;2.95;;;;;;;5.05;68.78;99624.94;10519973;28;20081;-79
2021/12/08 13:09:43;;;;;;;10.15;2.10;;;;;;;4.91;69.29;99630.34;10488076;28;20016;-81
2021/12/08 13:14:45;;;;;;;5.18;2.65;;;;;;;4.84;70.23;99634.34;10488279;28;20056;-81
2021/12/08 13:19:54;;;;;;;14.13;2.50;;;;;;;4.90;68.25;99640.63;10481663;28;20123;-80
2021/12/08 13:24:54;;;;;;;12.18;3.13;;;;;;;4.92;69.59;99646.78;10475006;28;20032;-81
2021/12/08 13:30:17;;;;;;;14.50;4.03;;;;;;;4.93;67.69;99645.97;10503613;28;20056;-79
2021/12/08 13:35:32;;;;;;;9.05;1.70;;;;;;;4.93;68.81;99646.84;10484694;28;20047;-79
2021/12/08 13:40:53;;;;;;;3.55;2.42;;;;;;;4.91;69.52;99632.06;10490663;28;20066;-79
2021/12/08 13:45:53;;;;;;;6.82;2.97;;;;;;;4.97;69.46;99629.78;10515566;28;20063;-79
2021/12/08 13:51:12;;;;;;;10.27;3.78;;;;;;;4.96;68.82;99623.69;10510478;28;20495;-79
2021/12/08 13:56:13;;;;;;;16.15;7.45;;;;;;;4.99;69.59;99634.19;10503840;28;20032;-80
2021/12/08 14:01:15;;;;;;;6.00;1.95;;;;;;;5.01;69.65;99626.50;10525103;28;20040;-80
2021/12/08 14:06:18;;;;;;;5.43;2.45;;;;;;;5.06;69.10;99625.03;10500794;28;20055;-80
2021/12/08 14:11:19;;;;;;;7.55;2.60;;;;;;;5.03;70.51;99635.25;10492970;28;20109;-81
2021/12/08 14:16:21;;;;;;;12.20;3.13;;;;;;;4.99;68.76;99639.38;10512553;28;20074;-80
2021/12/08 14:21:31;;;;;;;9.07;2.80;;;;;;;4.96;70.59;99652.19;10505445;28;20028;-79
2021/12/08 14:26:35;;;;;;;6.43;2.10;;;;;;;4.91;70.43;99651.06;10479511;28;20469;-80
2021/12/08 14:31:49;;;;;;;6.75;1.77;;;;;;;4.91;69.31;99660.56;10488635;28;20039;-79
2021/12/08 14:37:14;;;;;;;10.50;2.50;;;;;;;4.88;71.08;99679.44;10484223;28;20032;-80
2021/12/08 14:42:29;;;;;;;9.30;3.10;;;;;;;4.73;70.79;99681.25;10531620;28;20048;-81
2021/12/08 14:47:32;;;;;;;7.22;1.58;;;;;;;4.71;70.47;99683.78;10496000;28;20234;-81
2021/12/08 14:52:35;;;;;;;7.43;2.92;;;;;;;4.74;70.80;99694.28;10510693;28;20028;-82
2021/12/08 14:57:38;;;;;;;7.97;2.40;;;;;;;4.70;71.82;99682.84;10503481;28;20080;-81
2021/12/08 15:02:43;;;;;;;6.80;2.20;;;;;;;4.64;72.12;99685.13;10488077;28;20518;-80
2021/12/08 15:07:44;;;;;;;9.50;2.00;;;;;;;4.59;71.33;99690.91;10505278;28;20073;-81
2021/12/08 15:12:46;;;;;;;5.85;2.30;;;;;;;4.58;71.19;99694.31;10519656;28;20036;-80
2021/12/08 15:17:47;;;;;;;;;;;;;;;4.55;72.17;99705.38;10489688;28;20028;-79
2021/12/08 15:22:53;;;;;;;5.95;1.67;;;;;;;4.51;71.44;99711.22;10519704;28;20329;-78
2021/12/08 15:27:55;;;;;;;5.78;1.63;;;;;;;4.46;72.20;99715.25;10491022;28;20044;-77
2021/12/08 15:33:18;;;;;;;;;;;;;;;;;;;;;
2021/12/08 15:38:24;;;;;;;6.75;2.03;;;;;;;4.43;72.50;99716.00;10506222;28;20043;-77
2021/12/08 15:43:31;;;;;;;4.53;2.00;;;;;;;4.37;73.27;99708.78;10538385;28;20521;-76
2021/12/08 15:48:36;;;;;;;5.63;2.00;;;;;;;4.37;72.51;99706.19;10520280;28;20084;-77
2021/12/08 15:53:49;;;;;;;5.07;1.98;;;;;;;4.39;72.66;99721.81;10503732;28;20036;-76
2021/12/08 15:59:04;;;;;;;5.82;2.05;;;;;;;4.41;73.22;99727.97;10509371;28;20059;-79
2021/12/08 16:04:14;;;;;;;6.27;3.20;;;;;;;4.38;74.19;99735.59;10537779;28;20028;-78
2021/12/08 16:09:25;;;;;;;9.10;2.72;;;;;;;4.37;74.06;99745.03;10505864;28;20063;-78
2021/12/08 16:14:40;;;;;;;10.65;4.72;;;;;;;4.32;74.38;99754.25;10538859;28;20093;-79
2021/12/08 16:19:49;;;;;;;6.50;2.85;;;;;;;4.24;75.25;99752.94;10479662;28;20036;-78
2021/12/08 16:24:53;;;;;;;8.68;2.00;;;;;;;4.26;73.45;99759.09;10511553;28;20119;-79
2021/12/08 16:30:00;;;;;;;16.17;2.78;;;;;;;4.37;73.15;99762.31;10501047;28;20062;-78
2021/12/08 16:35:08;;;;;;;11.52;2.38;;;;;;;4.31;73.73;99772.31;10486921;28;20475;-78
2021/12/08 16:45:28;;;;;;;10.23;4.05;;;;;;;4.13;74.78;99770.50;10536376;28;20127;-77
2021/12/08 16:50:33;;;;;;;;;;;;;;;3.93;74.21;99777.13;10502675;28;20043;-78
2021/12/08 16:55:40;;;;;;;9.73;3.47;;;;;;;3.42;75.60;99776.81;10533868;28;19969;-77
2021/12/08 17:00:45;;;;;;;8.07;1.77;;;;;;;3.10;76.75;99791.31;10518010;28;20047;-76
2021/12/08 17:05:53;;;;;;;8.68;2.88;;;;;;;2.98;77.25;99794.03;10518496;28;20063;-76
2021/12/08 17:10:58;;;;;;;7.72;2.28;;;;;;;2.59;77.97;99800.31;10535891;28;20038;-78
2021/12/08 17:16:01;;;;;;;6.57;2.28;;;;;;;2.22;79.50;99808.31;10517963;28;20028;-78
2021/12/08 17:21:10;;;;;;;6.82;3.55;;;;;;;2.03;80.47;99811.41;10518521;28;20063;-77
2021/12/08 17:26:14;;;;;;;6.97;2.45;;;;;;;2.00;80.48;99811.22;10535849;28;20073;-77
2021/12/08 17:31:22;;;;;;;5.70;1.70;;;;;;;1.95;81.48;99813.47;10535880;28;20036;-77
2021/12/08 17:36:29;;;;;;;6.70;2.75;;;;;;;1.58;81.62;99811.97;10486158;28;20031;-77
2021/12/08 17:41:38;;;;;;;7.72;2.45;;;;;;;1.51;82.52;99819.19;10520205;28;20045;-78
2021/12/08 17:46:39;;;;;;;7.57;2.28;;;;;;;1.32;82.46;99810.22;10518270;28;20089;-78
2021/12/08 17:51:50;;;;;;;5.63;2.13;;;;;;;0.93;82.79;99809.28;10497168;28;20164;-76
2021/12/08 17:56:51;;;;;;;6.07;3.22;;;;;;;0.69;83.96;99827.38;10537492;28;20828;-78
2021/12/08 18:02:12;;;;;;;7.75;2.80;;;;;;;0.44;84.55;99841.09;10543368;28;20032;-77
2021/12/08 18:07:14;;;;;;;7.90;2.58;;;;;;;0.36;85.42;99844.81;10543503;28;20032;-77
2021/12/08 18:12:15;;;;;;;7.40;2.28;;;;;;;0.26;86.57;99844.13;10543218;28;20039;-77
2021/12/08 18:17:18;;;;;;;4.60;2.53;;;;;;;0.11;86.55;99846.50;10542698;28;20032;-76
2021/12/08 18:22:22;;;;;;;4.93;2.33;;;;;;;-0.07;86.78;99852.88;10542859;28;20036;-76
2021/12/08 18:27:24;;;;;;;12.37;2.00;;;;;;;-0.17;87.91;99853.88;10542276;28;20035;-76
2021/12/08 18:32:30;;;;;;;8.00;4.60;;;;;;;-0.25;87.85;99854.97;10540483;28;20028;-78
2021/12/08 18:37:46;;;;;;;4.57;2.08;;;;;;;-0.33;87.61;99864.69;10506899;28;20040;-76
2021/12/08 18:42:57;;;;;;;7.30;2.42;;;;;;;-0.35;87.84;99871.41;10506058;28;20087;-78
2021/12/08 18:48:03;;;;;;;12.38;2.33;;;;;;;-0.46;87.64;99884.34;10541546;28;20035;-76
2021/12/08 18:53:06;;;;;;;6.53;2.42;;;;;;;-0.56;88.00;99881.84;10524942;28;20040;-77
2021/12/08 18:58:13;;;;;;;20.30;4.78;;;;;;;-0.67;88.22;99886.16;10523816;28;20473;-77
2021/12/08 19:03:17;;;;;;;8.90;2.83;;;;;;;-0.70;89.02;99901.34;10522770;28;20403;-77
2021/12/08 19:08:22;;;;;;;7.68;2.80;;;;;;;-0.85;88.35;99895.03;10522344;28;20048;-78
2021/12/08 19:13:30;;;;;;;10.27;2.97;;;;;;;-0.92;88.79;99903.94;10523498;28;20035;-79
2021/12/08 19:18:34;;;;;;;5.80;3.50;;;;;;;-0.93;88.65;99909.88;10521413;28;20043;-79
2021/12/08 19:23:36;;;;;;;8.27;4.43;;;;;;;-0.97;89.77;99913.84;10540722;28;20032;-79
2021/12/08 19:28:39;;;;;;;7.00;3.38;;;;;;;-0.99;89.44;99923.09;10522751;28;20027;-79
2021/12/08 19:33:54;;;;;;;10.60;4.90;;;;;;;-1.05;89.66;99920.97;10522820;28;20036;-79
2021/12/08 19:39:03;;;;;;;24.47;5.53;;;;;;;-1.03;89.88;99936.50;10522858;28;20035;-79
2021/12/08 19:44:08;;;;;;;10.25;3.55;;;;;;;-1.03;90.07;99941.63;10521808;28;20085;-78
2021/12/08 19:49:13;;;;;;;14.07;5.65;;;;;;;-1.12;90.18;99935.75;10519861;28;20036;-78
2021/12/08 19:54:20;;;;;;;8.65;3.22;;;;;;;-1.06;90.04;99937.16;10481575;28;20032;-78
2021/12/08 19:59:25;;;;;;;11.85;3.80;;;;;;;-1.17;90.31;99935.41;10479251;28;20115;-78
2021/12/08 20:04:32;;;;;;;8.52;3.90;;;;;;;-1.16;91.06;99942.34;10496775;28;20035;-78
2021/12/08 20:09:41;;;;;;;9.43;5.05;;;;;;;-0.96;90.87;99950.72;10522201;28;20040;-78
2021/12/08 20:14:48;;;;;;;13.15;4.45;;;;;;;-0.95;91.10;99962.78;10538168;28;20032;-79
2021/12/08 20:19:58;;;;;;;9.27;4.72;;;;;;;-1.09;90.72;99957.47;10538498;28;20024;-78
2021/12/08 20:25:10;;;;;;;9.23;3.97;;;;;;;-0.95;90.17;99963.66;10520286;28;20032;-78
2021/12/08 20:30:13;;;;;;;10.23;4.22;;;;;;;-1.04;90.56;99963.84;10520985;28;20032;-78
2021/12/08 20:35:32;;;;;;;;;;;;;;;;;;;;;
2021/12/08 20:40:51;;;;;;;12.35;4.40;;;;;;;-1.13;90.08;99975.97;10522415;28;20047;-78
2021/12/08 20:45:56;;;;;;;13.77;5.38;;;;;;;-1.12;90.97;99980.34;10537543;28;20128;-78
2021/12/08 20:50:58;;;;;;;7.95;5.43;;;;;;;-1.20;90.31;99987.41;10520282;28;20020;-78
2021/12/08 20:56:04;;;;;;;11.77;4.95;;;;;;;-1.33;90.25;99979.50;10504682;28;20042;-78
2021/12/08 21:01:12;;;;;;;16.90;5.85;;;;;;;-1.26;90.97;99984.34;10504035;28;20468;-79
2021/12/08 21:06:18;;;;;;;12.38;6.05;;;;;;;-1.19;91.27;99989.19;10517478;28;20107;-77
2021/12/08 21:11:29;;;;;;;11.75;5.35;;;;;;;-1.22;90.97;99983.81;10494725;28;20059;-78
2021/12/08 21:16:33;;;;;;;10.63;4.90;;;;;;;-1.30;91.02;99992.56;10503777;28;20028;-78
2021/12/08 21:21:40;;;;;;;11.73;5.40;;;;;;;-1.21;91.17;99989.88;10537207;28;20035;-78
2021/12/08 21:26:49;;;;;;;13.57;6.28;;;;;;;-1.28;91.52;100001.28;10494536;28;20029;-78
2021/12/08 21:32:00;;;;;;;14.50;6.43;;;;;;;-1.29;91.53;100003.75;10534108;28;20028;-78
2021/12/08 21:37:10;;;;;;;11.10;5.88;;;;;;;-1.36;91.54;100005.81;10528915;28;20035;-78
2021/12/08 21:42:12;;;;;;;13.77;5.15;;;;;;;-1.43;91.35;100015.47;10544799;28;20048;-77
2021/12/08 21:47:30;;;;;;;12.13;5.68;;;;;;;-1.50;90.67;100012.38;10526166;28;20032;-78
2021/12/08 21:52:53;;;;;;;11.52;5.68;;;;;;;-1.57;90.80;100016.91;10507991;28;20055;-78
2021/12/08 21:57:56;;;;;;;12.13;5.68;;;;;;;-1.70;91.27;100020.13;10545477;28;20027;-78
2021/12/08 22:02:59;;;;;;;10.85;6.55;;;;;;;-1.82;91.27;100031.16;10526061;28;20038;-78
2021/12/08 22:08:03;;;;;;;13.88;6.70;;;;;;;-1.76;91.10;100038.47;10527012;28;20471;-78
2021/12/08 22:13:08;;;;;;;19.30;8.43;;;;;;;-1.75;91.89;100044.50;10525863;28;20419;-78
2021/12/08 22:18:14;;;;;;;25.85;10.70;;;;;;;-1.78;91.54;100035.78;10510456;28;20069;-78
2021/12/08 22:23:19;;;;;;;22.70;8.70;;;;;;;-1.73;91.53;100035.25;10526261;28;20108;-77
2021/12/08 22:28:28;;;;;;;16.90;9.57;;;;;;;-1.68;91.37;100039.09;10526695;28;20110;-77
2021/12/08 22:33:31;;;;;;;23.45;11.20;;;;;;;-1.53;92.26;100044.63;10525265;28;20039;-78
2021/12/08 22:38:32;;;;;;;21.85;11.90;;;;;;;-1.59;91.70;100056.94;10524577;28;20032;-78
2021/12/08 22:43:34;;;;;;;20.60;9.52;;;;;;;-1.56;92.04;100052.06;10500042;28;20040;-78
2021/12/08 22:48:38;;;;;;;;;;;;;;;-1.23;92.09;100060.75;10501829;28;20057;-78
2021/12/08 22:53:41;;;;;;;16.38;9.20;;;;;;;-1.14;91.89;100058.00;10499350;28;19969;-78
2021/12/08 22:58:45;;;;;;;15.93;9.60;;;;;;;-1.27;92.51;100063.84;10499701;28;20028;-78
2021/12/08 23:03:49;;;;;;;17.42;9.02;;;;;;;-1.34;91.87;100063.34;10482468;28;20028;-78
2021/12/08 23:08:53;;;;;;;18.83;8.10;;;;;;;-1.29;91.48;100065.38;10499122;28;20070;-78
2021/12/08 23:13:56;;;;;;;13.88;9.05;;;;;;;-1.31;91.78;100064.34;10498842;28;20077;-78
2021/12/08 23:19:01;;;;;;;23.27;9.80;;;;;;;-1.21;92.06;100070.34;10482297;28;20127;-78
2021/12/08 23:24:16;;;;;;;20.75;10.07;;;;;;;-1.06;92.22;100063.00;10498266;28;20078;-78
2021/12/08 23:29:19;;;;;;;18.13;9.55;;;;;;;-0.73;91.88;100065.59;10497731;28;20028;-77
2021/12/08 23:34:29;;;;;;;19.58;9.07;;;;;;;-0.76;91.81;100071.38;10479720;28;20046;-78
2021/12/08 23:39:35;;;;;;;17.67;9.10;;;;;;;-0.80;91.40;100073.56;10499140;28;20537;-76
2021/12/08 23:44:38;;;;;;;14.48;7.43;;;;;;;-0.76;91.87;100068.81;10522691;28;20500;-77
2021/12/08 23:49:45;;;;;;;12.90;7.93;;;;;;;-0.32;91.84;100070.53;10506320;28;20036;-77
2021/12/08 23:54:47;;;;;;;17.15;9.27;;;;;;;-0.25;91.87;100076.16;10539763;28;20074;-77
2021/12/08 23:59:52;;;;;;;13.48;6.57;;;;;;;-0.01;91.30;100061.72;10521644;28;20024;-77
